Kirkland, Washington
Current Conditions -  °F | °C
As of 10:53 PM on Wednesday 22 Oct 2014 (Local Time) from KBFI Reporting Station
Broken Clouds Broken Clouds  
Wind Chill: 60°   Ceiling: 7000
Heat Index: 60°   Visibility: 10mi
Dew Point: 51°   Wind: 7mph
Humidity: 72%   Direction: 180°S
Pressure: 29.68"   Gusts: NA
Location:  47.68°N, 122.2°W
Report Text: KBFI 230553Z 18006KT 10SM SCT025 BKN070 16/11 A2968 RMK AO2 PRESRR SLP052 60026 T01560106 10156 20139 53040
Loading
Personal Weather Stations






























Interactive Weather Map
Tropical Storm Tracking
New forecast layout! Learn more

10-Day Weather Forecast

Advertisements
Track Severe Weather on mobile